Time;durP1;ratioP1;P1;durP2;ratioP2;P2;SDS_P1;SDS_P2;PMS_P1;PMS_P2;Temp;Humidity;BMP_temperature;BMP_pressure;BME280_temperature;BME280_humidity;BME280_pressure;Samples;Min_cycle;Max_cycle;Signal;HPM_P1;HPM_P2
2023/07/27 00:00:21;;;;;;;9.55;7.57;;;;;;;18.97;80.66;93937.00;5069031;28;20201;-74
2023/07/27 00:02:48;;;;;;;8.35;5.72;;;;;;;18.97;80.95;93936.22;5068275;28;20602;-74
2023/07/27 00:05:16;;;;;;;10.48;8.95;;;;;;;18.93;81.25;93938.16;5068959;28;20206;-74
2023/07/27 00:07:43;;;;;;;10.77;9.23;;;;;;;18.94;81.92;93940.53;5057751;28;20700;-71
2023/07/27 00:10:10;;;;;;;10.40;8.75;;;;;;;19.01;82.07;93947.94;5068928;28;20230;-74
2023/07/27 00:12:36;;;;;;;10.73;9.60;;;;;;;18.86;82.93;93949.94;5068794;28;20195;-73
2023/07/27 00:15:04;;;;;;;10.75;9.32;;;;;;;18.79;82.81;93949.97;5068616;28;20635;-73
2023/07/27 00:17:30;;;;;;;11.35;8.23;;;;;;;18.64;81.96;93957.47;5076202;28;20221;-71
2023/07/27 00:19:58;;;;;;;9.13;7.70;;;;;;;18.53;81.69;93961.38;5074790;28;20276;-75
2023/07/27 00:22:26;;;;;;;10.52;7.90;;;;;;;18.46;82.27;93957.44;5068874;28;20199;-71
2023/07/27 00:24:53;;;;;;;9.60;7.57;;;;;;;18.40;81.59;93950.81;5068322;28;20199;-72
2023/07/27 00:27:20;;;;;;;8.38;6.45;;;;;;;18.35;80.28;93956.69;5068409;28;20244;-74
2023/07/27 00:29:46;;;;;;;6.78;4.10;;;;;;;18.26;80.90;93945.34;5068910;28;20667;-75
2023/07/27 00:32:13;;;;;;;11.27;3.28;;;;;;;18.18;81.00;93957.47;5068432;28;20234;-72
2023/07/27 00:34:40;;;;;;;5.28;2.95;;;;;;;18.08;80.09;93941.81;5067863;28;20654;-73
2023/07/27 00:37:07;;;;;;;6.15;4.80;;;;;;;18.05;80.19;93948.06;5068142;28;20206;-74
2023/07/27 00:39:36;;;;;;;6.85;5.78;;;;;;;17.98;80.08;93948.84;5068642;28;20313;-73
2023/07/27 00:42:03;;;;;;;6.32;5.00;;;;;;;17.92;80.21;93955.88;5068157;28;20211;-71
2023/07/27 00:44:29;;;;;;;6.63;4.95;;;;;;;17.85;80.24;93953.16;5068128;28;20195;-71
2023/07/27 00:46:56;;;;;;;5.57;4.60;;;;;;;17.77;80.81;93964.50;5068081;28;20584;-72
2023/07/27 00:49:23;;;;;;;6.55;3.35;;;;;;;17.76;80.91;93958.25;5072167;28;20665;-71
2023/07/27 00:51:50;;;;;;;4.82;3.03;;;;;;;17.73;80.89;93954.31;5071598;28;20657;-72
2023/07/27 00:54:18;;;;;;;6.63;3.10;;;;;;;17.81;80.55;93955.09;5071803;28;20229;-73
2023/07/27 00:56:46;;;;;;;6.22;2.60;;;;;;;17.76;80.42;93952.75;5072638;28;20229;-73
2023/07/27 00:59:14;;;;;;;3.78;2.17;;;;;;;17.73;80.06;93948.06;5072413;28;20195;-70
2023/07/27 01:01:40;;;;;;;5.03;2.35;;;;;;;17.75;80.07;93959.41;5081656;28;20199;-74
2023/07/27 01:04:08;;;;;;;6.47;4.47;;;;;;;17.73;79.80;93954.31;5076753;28;20206;-72
2023/07/27 01:06:35;;;;;;;5.70;1.67;;;;;;;17.74;79.73;93955.88;5071347;28;20202;-73
2023/07/27 01:09:02;;;;;;;7.60;4.78;;;;;;;17.77;79.01;93955.09;5069064;28;20192;-73
2023/07/27 01:11:38;;;;;;;7.10;3.83;;;;;;;17.84;78.62;93970.00;5076088;28;20207;-73
2023/07/27 01:14:12;;;;;;;7.15;4.30;;;;;;;17.84;78.47;93970.00;5071637;28;20218;-72
2023/07/27 01:16:46;;;;;;;3.80;2.13;;;;;;;17.84;78.00;93970.78;5071589;28;20264;-73
2023/07/27 01:19:32;;;;;;;5.20;3.63;;;;;;;17.81;77.63;93976.22;5057031;28;20187;-71
2023/07/27 01:22:16;;;;;;;3.28;2.80;;;;;;;17.75;77.51;93973.91;5071585;28;20270;-72
2023/07/27 01:25:07;;;;;;;4.07;2.72;;;;;;;17.77;76.91;93971.53;5071516;28;20236;-73
2023/07/27 01:27:56;;;;;;;3.97;2.97;;;;;;;17.74;76.60;93986.03;5060831;28;20199;-73
2023/07/27 01:30:49;;;;;;;2.13;1.58;;;;;;;17.73;76.32;93980.94;5071820;28;20222;-73
2023/07/27 01:33:22;;;;;;;3.25;2.92;;;;;;;17.75;75.69;93990.34;5063942;28;20717;-72
2023/07/27 01:35:54;;;;;;;3.15;1.60;;;;;;;17.66;75.70;93987.16;5071397;28;20215;-73
2023/07/27 01:38:23;;;;;;;4.07;2.55;;;;;;;17.57;75.81;93983.22;5071305;28;20586;-73
2023/07/27 01:40:51;;;;;;;3.45;2.20;;;;;;;17.55;76.15;93986.34;5071189;28;20195;-73
2023/07/27 01:43:18;;;;;;;2.95;2.30;;;;;;;17.51;76.27;93988.25;5084140;28;20199;-74
2023/07/27 01:45:47;;;;;;;4.68;3.00;;;;;;;17.41;76.43;93987.06;5071097;28;20556;-73
2023/07/27 01:48:17;;;;;;;3.47;3.10;;;;;;;17.40;76.84;93990.97;5071015;28;20313;-72
2023/07/27 01:50:45;;;;;;;2.83;2.45;;;;;;;17.36;77.08;93992.13;5084968;28;20549;-71
2023/07/27 01:53:12;;;;;;;4.50;2.85;;;;;;;17.39;77.07;93985.88;5071261;28;20203;-73
2023/07/27 01:55:41;;;;;;;5.18;2.97;;;;;;;17.38;77.16;93987.84;5070805;28;20226;-73
2023/07/27 01:58:09;;;;;;;3.25;2.95;;;;;;;17.46;77.22;93999.63;5078727;28;20206;-72
2023/07/27 02:00:36;;;;;;;5.22;3.35;;;;;;;17.38;77.51;93998.00;5083225;28;20195;-73
2023/07/27 02:03:06;;;;;;;3.58;3.28;;;;;;;17.41;77.46;93997.25;5060168;28;20192;-73
2023/07/27 02:05:33;;;;;;;4.65;3.13;;;;;;;17.41;77.32;94008.19;5071408;28;20195;-71
2023/07/27 02:07:59;;;;;;;3.78;3.38;;;;;;;17.31;77.65;94019.91;5070969;28;20196;-74
2023/07/27 02:10:28;;;;;;;3.67;2.67;;;;;;;17.29;78.03;94016.75;5070962;28;20206;-73
2023/07/27 02:13:02;;;;;;;3.28;2.45;;;;;;;17.27;77.84;94019.09;5070871;28;20207;-73
2023/07/27 02:15:34;;;;;;;4.00;3.00;;;;;;;17.25;78.03;94014.00;5070707;28;20583;-72
2023/07/27 02:18:08;;;;;;;4.18;2.58;;;;;;;17.30;77.76;94012.84;5070748;28;20194;-72
2023/07/27 02:20:38;;;;;;;4.03;2.90;;;;;;;17.27;77.77;94014.41;5074349;28;20589;-73
2023/07/27 02:23:06;;;;;;;3.17;2.83;;;;;;;17.22;78.04;94014.75;5073870;28;20195;-71
2023/07/27 02:25:33;;;;;;;5.13;3.72;;;;;;;17.25;78.27;94044.09;5058073;28;20203;-73
2023/07/27 02:28:00;;;;;;;5.97;5.38;;;;;;;17.24;78.10;94031.59;5070226;28;20557;-73
2023/07/27 02:30:26;;;;;;;6.30;5.45;;;;;;;17.24;78.14;94041.75;5070751;28;20210;-73
2023/07/27 02:32:53;;;;;;;6.80;6.10;;;;;;;17.24;78.23;94037.06;5070065;28;20223;-73
2023/07/27 02:35:21;;;;;;;6.72;6.10;;;;;;;17.21;78.39;94042.53;5070658;28;20563;-73
2023/07/27 02:37:49;;;;;;;2.88;2.60;;;;;;;17.20;78.25;94030.03;5070138;28;20678;-71
2023/07/27 02:40:16;;;;;;;4.07;2.95;;;;;;;17.17;78.62;94033.53;5070489;28;20287;-73
2023/07/27 02:42:43;;;;;;;6.10;4.30;;;;;;;17.07;78.46;94028.78;5070089;28;20225;-73
2023/07/27 02:45:11;;;;;;;8.25;3.97;;;;;;;17.12;78.67;94028.41;5070276;28;20205;-73
2023/07/27 02:47:37;;;;;;;5.07;3.25;;;;;;;17.18;78.35;94032.34;5071272;28;20660;-73
2023/07/27 02:50:05;;;;;;;3.97;3.45;;;;;;;17.18;78.28;94038.59;5081954;28;20685;-74
2023/07/27 02:52:31;;;;;;;7.50;6.80;;;;;;;17.18;77.13;94040.56;5083337;28;20628;-72
2023/07/27 02:55:00;;;;;;;5.85;5.25;;;;;;;17.16;76.80;94045.63;5078347;28;20214;-71
2023/07/27 02:57:28;;;;;;;7.72;7.00;;;;;;;17.17;76.60;94052.69;5074678;28;20705;-74
2023/07/27 02:59:55;;;;;;;6.80;3.97;;;;;;;17.12;75.99;94061.25;5075176;28;20256;-73
2023/07/27 03:02:22;;;;;;;4.40;3.17;;;;;;;17.13;76.37;94063.59;5073622;28;20203;-71
2023/07/27 03:04:49;;;;;;;4.47;4.07;;;;;;;17.13;76.59;94057.34;5069559;28;20610;-73
2023/07/27 03:07:16;;;;;;;5.72;3.25;;;;;;;17.01;75.57;94059.22;5069379;28;20201;-72
2023/07/27 03:09:43;;;;;;;5.47;4.53;;;;;;;17.02;75.75;94068.22;5069508;28;20199;-73
2023/07/27 03:12:13;;;;;;;4.28;3.08;;;;;;;17.03;75.41;94081.53;5069210;28;20202;-73
2023/07/27 03:14:39;;;;;;;3.28;2.83;;;;;;;16.97;75.07;94079.53;5069898;28;20565;-72
2023/07/27 03:17:08;;;;;;;4.03;3.45;;;;;;;16.95;74.82;94084.59;5069442;28;20302;-71
2023/07/27 03:19:35;;;;;;;6.20;4.45;;;;;;;16.91;74.42;94094.75;5069406;28;20301;-74
2023/07/27 03:22:01;;;;;;;4.72;4.00;;;;;;;16.90;74.47;94085.75;5069651;28;20211;-72
2023/07/27 03:24:28;;;;;;;4.85;3.95;;;;;;;16.84;74.24;94090.00;5069584;28;20195;-73
2023/07/27 03:26:55;;;;;;;3.72;3.25;;;;;;;16.78;73.97;94093.47;5069237;28;20332;-72
2023/07/27 03:29:23;;;;;;;3.95;3.55;;;;;;;16.79;73.81;94095.06;5069421;28;20192;-73
2023/07/27 03:31:50;;;;;;;4.40;3.58;;;;;;;16.80;73.22;94094.69;5076550;28;20223;-72
2023/07/27 03:34:17;;;;;;;6.57;4.03;;;;;;;16.81;73.01;94096.22;5069168;28;20199;-73
2023/07/27 03:36:44;;;;;;;6.45;5.85;;;;;;;16.90;72.26;94099.44;5068478;28;20226;-73
2023/07/27 03:39:10;;;;;;;6.18;5.57;;;;;;;16.87;71.23;94091.19;5068911;28;20199;-73
2023/07/27 03:41:37;;;;;;;3.85;2.88;;;;;;;16.84;70.46;94095.47;5068730;28;20199;-71
2023/07/27 03:44:04;;;;;;;6.13;3.30;;;;;;;16.79;70.79;94097.78;5068967;28;20278;-73
2023/07/27 03:46:33;;;;;;;6.45;4.63;;;;;;;16.83;70.83;94104.84;5069222;28;20199;-73
2023/07/27 03:48:59;;;;;;;5.35;4.85;;;;;;;16.89;70.48;94106.06;5068835;28;20201;-75
2023/07/27 03:51:26;;;;;;;4.97;4.00;;;;;;;16.99;69.90;94113.56;5069164;28;20196;-73
2023/07/27 03:53:53;;;;;;;3.70;3.15;;;;;;;16.90;69.23;94115.06;5068335;28;20504;-74
2023/07/27 03:56:20;;;;;;;3.10;2.80;;;;;;;16.94;68.94;94122.13;5069237;28;20227;-74
2023/07/27 03:58:46;;;;;;;3.95;2.97;;;;;;;16.95;68.78;94118.22;5069194;28;20210;-73
2023/07/27 04:01:13;;;;;;;6.25;3.53;;;;;;;17.05;68.67;94123.00;5078759;28;20248;-74
2023/07/27 04:03:41;;;;;;;2.53;2.33;;;;;;;17.29;67.05;94131.72;5068924;28;20206;-72
2023/07/27 04:06:08;;;;;;;3.38;3.03;;;;;;;17.36;66.45;94137.25;5061767;28;20272;-74
2023/07/27 04:08:35;;;;;;;2.67;2.28;;;;;;;17.30;66.23;94149.72;5068587;28;20206;-75
2023/07/27 04:11:02;;;;;;;3.70;3.13;;;;;;;17.52;65.78;94145.94;5069263;28;20202;-73
2023/07/27 04:13:28;;;;;;;2.60;2.35;;;;;;;17.36;65.02;94154.44;5068769;28;20202;-73
2023/07/27 04:15:55;;;;;;;2.05;1.67;;;;;;;17.22;64.23;94165.31;5068562;28;20265;-73
2023/07/27 04:18:22;;;;;;;3.47;1.92;;;;;;;17.16;64.82;94166.06;5068757;28;20585;-73
2023/07/27 04:20:50;;;;;;;1.90;1.65;;;;;;;17.04;64.87;94162.47;5069075;28;20217;-70
2023/07/27 04:23:17;;;;;;;1.75;1.50;;;;;;;17.33;63.59;94170.88;5071059;28;20202;-76
2023/07/27 04:25:44;;;;;;;2.00;1.40;;;;;;;17.15;63.78;94169.97;5072745;28;20198;-73
2023/07/27 04:28:11;;;;;;;1.60;1.50;;;;;;;16.86;65.01;94182.63;5072702;28;20206;-71
2023/07/27 04:30:37;;;;;;;2.85;1.70;;;;;;;16.74;64.88;94199.34;5072550;28;20199;-73
2023/07/27 04:33:04;;;;;;;1.55;1.30;;;;;;;16.84;65.48;94206.84;5072241;28;20237;-73
2023/07/27 04:35:31;;;;;;;2.00;1.13;;;;;;;16.91;64.87;94204.19;5072838;28;20203;-74
2023/07/27 04:37:59;;;;;;;6.45;2.30;;;;;;;16.82;64.70;94212.69;5072203;28;20277;-72
2023/07/27 04:40:26;;;;;;;1.15;1.08;;;;;;;16.76;64.53;94211.47;5072525;28;20569;-75
2023/07/27 04:42:53;;;;;;;1.30;1.20;;;;;;;16.74;64.27;94210.28;5086088;28;20210;-74
2023/07/27 04:45:19;;;;;;;2.97;2.42;;;;;;;16.71;64.03;94217.28;5072187;28;20206;-72
2023/07/27 04:47:46;;;;;;;3.45;2.22;;;;;;;16.68;64.37;94202.41;5072354;28;20199;-75
2023/07/27 04:50:13;;;;;;;2.60;2.35;;;;;;;16.61;64.98;94223.41;5072492;28;20211;-74
2023/07/27 04:52:40;;;;;;;2.30;2.05;;;;;;;16.70;64.89;94215.69;5072318;28;20612;-74
2023/07/27 04:55:09;;;;;;;1.58;1.25;;;;;;;16.65;64.89;94221.53;5072323;28;20202;-71
2023/07/27 04:57:35;;;;;;;1.25;1.13;;;;;;;16.71;65.02;94222.75;5071638;28;20238;-72
2023/07/27 05:00:02;;;;;;;2.92;1.83;;;;;;;16.74;65.21;94227.47;5078173;28;20191;-72
2023/07/27 05:02:29;;;;;;;8.65;1.70;;;;;;;16.45;65.50;94231.84;5088215;28;20203;-72
2023/07/27 05:04:56;;;;;;;2.15;1.70;;;;;;;16.46;66.47;94232.63;5071896;28;20203;-73
2023/07/27 05:07:22;;;;;;;1.40;1.30;;;;;;;16.39;66.31;94243.50;5072200;28;20313;-71
2023/07/27 05:09:49;;;;;;;4.40;1.38;;;;;;;16.39;66.02;94230.59;5071814;28;20199;-72
2023/07/27 05:12:17;;;;;;;4.45;2.30;;;;;;;16.61;65.30;94234.34;5072014;28;20203;-72
2023/07/27 05:14:44;;;;;;;3.40;2.50;;;;;;;16.59;65.27;94242.13;5071971;28;20203;-70
2023/07/27 05:17:11;;;;;;;3.80;2.22;;;;;;;16.64;65.13;94245.38;5085395;28;20747;-71
2023/07/27 05:19:38;;;;;;;2.33;2.05;;;;;;;16.64;65.09;94250.03;5072022;28;20225;-72
2023/07/27 05:22:05;;;;;;;1.70;1.58;;;;;;;16.62;65.05;94257.81;5071412;28;20605;-71
2023/07/27 05:24:32;;;;;;;1.58;1.48;;;;;;;16.59;64.40;94261.28;5071943;28;20210;-74
2023/07/27 05:26:58;;;;;;;2.08;1.88;;;;;;;16.70;64.13;94264.94;5071879;28;20207;-73
2023/07/27 05:29:27;;;;;;;2.10;1.90;;;;;;;16.81;64.22;94248.66;5072017;28;20277;-73
2023/07/27 05:31:53;;;;;;;3.58;2.67;;;;;;;16.87;64.08;94253.41;5071425;28;20732;-74
2023/07/27 05:34:20;;;;;;;3.72;2.20;;;;;;;17.04;63.79;94257.47;5071757;28;20203;-74
2023/07/27 05:36:47;;;;;;;1.73;1.58;;;;;;;17.11;63.15;94256.72;5071276;28;20612;-73
2023/07/27 05:39:14;;;;;;;1.80;1.65;;;;;;;16.96;63.41;94255.81;5071288;28;20646;-75
2023/07/27 05:41:40;;;;;;;4.72;1.90;;;;;;;16.83;63.53;94268.97;5071781;28;20199;-74
2023/07/27 05:44:07;;;;;;;5.85;1.45;;;;;;;16.80;63.03;94261.53;5070683;28;20612;-71
2023/07/27 05:46:35;;;;;;;2.22;1.85;;;;;;;16.92;63.43;94266.75;5070790;28;20314;-73
2023/07/27 05:49:02;;;;;;;1.48;1.38;;;;;;;16.97;63.29;94265.59;5064477;28;20191;-75
2023/07/27 05:51:29;;;;;;;1.45;1.20;;;;;;;16.96;63.59;94270.28;5070920;28;20262;-72
2023/07/27 05:53:56;;;;;;;4.80;2.00;;;;;;;16.91;63.90;94280.78;5070589;28;20641;-73
2023/07/27 05:56:23;;;;;;;4.97;1.65;;;;;;;17.56;62.51;94282.91;5070740;28;20210;-73
2023/07/27 05:58:49;;;;;;;2.00;1.80;;;;;;;17.25;62.54;94295.16;5070655;28;20660;-72
2023/07/27 06:01:16;;;;;;;2.67;1.40;;;;;;;17.05;63.43;94298.16;5077936;28;20206;-72
2023/07/27 06:03:44;;;;;;;2.97;2.10;;;;;;;16.87;64.42;94305.38;5070572;28;20601;-74
2023/07/27 06:06:11;;;;;;;1.85;1.63;;;;;;;16.56;64.38;94308.50;5068810;28;20602;-73
2023/07/27 06:08:39;;;;;;;1.92;1.55;;;;;;;16.51;64.57;94312.38;5070365;28;20279;-72
2023/07/27 06:11:09;;;;;;;2.80;1.92;;;;;;;16.58;63.84;94306.19;5070582;28;20199;-72
2023/07/27 06:13:36;;;;;;;2.13;1.73;;;;;;;16.50;63.94;94316.28;5071143;28;20199;-73
2023/07/27 06:16:04;;;;;;;2.20;2.00;;;;;;;16.85;63.37;94313.16;5070695;28;20200;-73
2023/07/27 06:18:31;;;;;;;1.83;1.48;;;;;;;16.89;62.07;94303.06;5070908;28;20227;-71
2023/07/27 06:20:59;;;;;;;2.60;2.10;;;;;;;17.00;61.39;94306.69;5070093;28;20285;-73
2023/07/27 06:23:27;;;;;;;2.35;2.08;;;;;;;17.11;61.05;94297.78;5069886;28;20195;-73
2023/07/27 06:25:54;;;;;;;1.98;1.20;;;;;;;17.46;59.15;94295.38;5070219;28;20232;-72
2023/07/27 06:28:21;;;;;;;4.22;1.40;;;;;;;18.37;57.30;94299.88;5070192;28;20700;-73
2023/07/27 06:30:48;;;;;;;4.90;1.55;;;;;;;18.31;56.44;94300.66;5070014;28;20218;-72
2023/07/27 06:33:15;;;;;;;2.05;1.63;;;;;;;18.59;56.18;94305.47;5072620;28;20231;-73
2023/07/27 06:35:42;;;;;;;1.60;1.45;;;;;;;20.77;50.61;94285.81;5081137;28;20198;-73
2023/07/27 06:38:10;;;;;;;2.00;1.60;;;;;;;22.06;46.23;94275.47;5070008;28;20237;-73
2023/07/27 06:40:37;;;;;;;2.28;1.58;;;;;;;22.66;45.13;94270.06;5066802;28;20694;-76
2023/07/27 06:43:04;;;;;;;1.70;1.58;;;;;;;23.50;43.80;94272.09;5070092;28;20412;-75
2023/07/27 06:45:31;;;;;;;4.55;1.90;;;;;;;22.96;43.41;94271.28;5069589;28;20195;-75
2023/07/27 06:47:58;;;;;;;2.72;1.95;;;;;;;22.03;44.59;94271.53;5069579;28;20325;-71
2023/07/27 06:50:25;;;;;;;2.47;1.60;;;;;;;22.55;42.37;94258.34;5068899;28;20191;-73
2023/07/27 06:52:52;;;;;;;3.80;1.35;;;;;;;22.94;41.91;94255.13;5066849;28;20617;-74
2023/07/27 06:55:20;;;;;;;1.40;1.30;;;;;;;23.85;40.44;94245.06;5067994;28;20191;-73
2023/07/27 06:57:47;;;;;;;1.52;1.38;;;;;;;24.76;38.42;94245.28;5069023;28;20701;-76
2023/07/27 07:00:14;;;;;;;2.65;1.20;;;;;;;24.80;38.05;94237.69;5071078;28;20199;-77
2023/07/27 07:02:41;;;;;;;1.95;1.30;;;;;;;23.48;40.06;94246.81;5069889;28;20195;-71
2023/07/27 07:05:08;;;;;;;4.50;1.50;;;;;;;23.38;40.12;94240.25;5068859;28;20195;-75
2023/07/27 07:07:36;;;;;;;1.30;1.20;;;;;;;24.41;38.78;94238.50;5068497;28;20249;-77
2023/07/27 07:10:03;;;;;;;1.13;1.02;;;;;;;22.54;40.95;94240.25;5068617;28;20250;-70
2023/07/27 07:12:31;;;;;;;1.35;1.25;;;;;;;22.70;41.21;94234.09;5069172;28;20191;-73
2023/07/27 07:14:58;;;;;;;1.95;1.40;;;;;;;22.87;41.59;94240.63;5068878;28;20205;-74
2023/07/27 07:17:24;;;;;;;6.20;1.20;;;;;;;21.60;42.76;94243.53;5068866;28;20308;-72
2023/07/27 07:19:51;;;;;;;2.78;1.67;;;;;;;21.84;43.07;94242.56;5068942;28;20191;-74
2023/07/27 07:22:18;;;;;;;9.23;1.73;;;;;;;22.82;42.04;94238.34;5068937;28;20195;-74
2023/07/27 07:24:45;;;;;;;2.72;1.40;;;;;;;22.53;42.24;94237.88;5066301;28;20733;-74
2023/07/27 07:27:11;;;;;;;6.05;1.35;;;;;;;21.69;43.74;94260.44;5068702;28;20674;-71
2023/07/27 07:29:40;;;;;;;4.07;1.20;;;;;;;22.65;42.65;94240.88;5071832;28;20199;-77
2023/07/27 07:32:07;;;;;;;1.00;0.90;;;;;;;23.03;41.31;94238.03;5066594;28;20579;-73
2023/07/27 07:34:35;;;;;;;0.70;0.70;;;;;;;22.79;41.38;94239.16;5068980;28;20195;-74
2023/07/27 07:37:02;;;;;;;1.77;1.55;;;;;;;21.56;44.17;94242.81;5067530;28;20191;-73
2023/07/27 07:39:28;;;;;;;4.03;1.73;;;;;;;21.72;43.87;94245.81;5068110;28;20225;-71
2023/07/27 07:41:55;;;;;;;1.52;0.95;;;;;;;20.54;46.10;94245.81;5068900;28;20206;-75
2023/07/27 07:44:22;;;;;;;12.05;1.50;;;;;;;21.28;45.13;94238.31;5068842;28;20207;-74
2023/07/27 07:46:50;;;;;;;1.98;1.13;;;;;;;21.10;44.98;94245.88;5068376;28;20628;-72
2023/07/27 07:49:17;;;;;;;2.47;1.00;;;;;;;21.46;44.42;94244.44;5068685;28;20818;-71
2023/07/27 07:51:44;;;;;;;1.30;1.20;;;;;;;21.83;43.86;94246.50;5069001;28;20284;-75
2023/07/27 07:54:11;;;;;;;1.40;1.30;;;;;;;21.01;44.54;94245.56;5065797;28;20693;-72
2023/07/27 07:56:38;;;;;;;1.08;0.98;;;;;;;20.74;45.87;94270.09;5068438;28;20588;-73
2023/07/27 07:59:05;;;;;;;1.75;1.40;;;;;;;21.02;45.23;94247.91;5073706;28;20237;-76
2023/07/27 08:01:31;;;;;;;1.38;1.20;;;;;;;21.86;44.54;94261.47;5068442;28;20673;-75
2023/07/27 08:04:00;;;;;;;0.95;0.90;;;;;;;22.52;42.74;94259.19;5068534;28;20217;-74
2023/07/27 08:06:26;;;;;;;1.52;1.05;;;;;;;22.40;42.00;94256.19;5068877;28;20199;-76
2023/07/27 08:08:53;;;;;;;3.22;1.05;;;;;;;21.52;44.04;94275.13;5069004;28;20210;-73
2023/07/27 08:11:20;;;;;;;3.10;1.20;;;;;;;21.55;44.31;94268.81;5068449;28;20208;-70
2023/07/27 08:13:47;;;;;;;3.65;1.60;;;;;;;21.55;43.34;94269.59;5068564;28;20192;-73
2023/07/27 08:16:13;;;;;;;24.73;2.92;;;;;;;21.05;44.70;94268.34;5068693;28;20206;-73
2023/07/27 08:18:40;;;;;;;2.95;1.10;;;;;;;21.13;44.63;94276.16;5068690;28;20230;-74
2023/07/27 08:21:09;;;;;;;1.08;0.98;;;;;;;20.81;44.40;94281.06;5063961;28;20211;-73
2023/07/27 08:23:36;;;;;;;3.95;1.35;;;;;;;21.33;44.42;94264.63;5068250;28;20298;-71
2023/07/27 08:26:07;;;;;;;1.80;1.27;;;;;;;21.71;43.92;94273.81;5068573;28;20303;-74
2023/07/27 08:28:34;;;;;;;1.45;0.90;;;;;;;20.88;44.24;94278.28;5067763;28;20744;-71
2023/07/27 08:31:02;;;;;;;3.05;1.30;;;;;;;20.77;45.42;94285.81;5068363;28;20207;-74
2023/07/27 08:33:28;;;;;;;5.63;1.40;;;;;;;20.77;45.39;94283.06;5068394;28;20260;-72
2023/07/27 08:35:57;;;;;;;7.63;1.40;;;;;;;21.52;45.05;94292.47;5068442;28;20210;-73
2023/07/27 08:38:25;;;;;;;3.40;1.50;;;;;;;21.79;43.98;94281.59;5068499;28;20231;-74
2023/07/27 08:40:56;;;;;;;4.32;1.20;;;;;;;22.28;42.22;94282.31;5068437;28;20666;-72
2023/07/27 08:43:23;;;;;;;5.05;2.00;;;;;;;21.28;43.81;94294.22;5055263;28;20282;-70
2023/07/27 08:45:50;;;;;;;6.10;1.63;;;;;;;21.30;44.44;94302.06;5066265;28;20195;-74
2023/07/27 08:48:17;;;;;;;1.42;0.98;;;;;;;21.30;43.92;94301.28;5055284;28;20250;-73
2023/07/27 08:50:45;;;;;;;0.70;0.70;;;;;;;20.99;44.91;94298.28;5067265;28;20654;-72
2023/07/27 08:53:12;;;;;;;2.03;1.55;;;;;;;20.71;45.43;94310.22;5062178;28;20206;-73
2023/07/27 08:55:41;;;;;;;2.03;1.10;;;;;;;21.26;45.13;94318.63;5067572;28;20651;-75
2023/07/27 08:58:08;;;;;;;3.08;1.30;;;;;;;21.16;44.90;94324.97;5066217;28;20767;-72
2023/07/27 09:00:35;;;;;;;0.70;0.70;;;;;;;20.60;45.98;94303.19;5078648;28;20728;-74
2023/07/27 09:03:02;;;;;;;4.20;1.48;;;;;;;20.69;45.84;94303.53;5071818;28;20202;-70
2023/07/27 09:05:38;;;;;;;4.78;0.90;;;;;;;21.08;44.89;94295.88;5063981;28;20199;-71
2023/07/27 09:08:07;;;;;;;1.40;0.90;;;;;;;20.69;45.57;94289.78;5077827;28;20316;-70
2023/07/27 09:10:34;;;;;;;0.80;0.70;;;;;;;20.76;44.83;94278.75;5075764;28;20214;-73
2023/07/27 09:13:03;;;;;;;2.58;1.08;;;;;;;20.51;45.68;94274.13;5072016;28;20308;-73
2023/07/27 09:15:30;;;;;;;0.90;0.80;;;;;;;20.52;46.68;94283.16;5071940;28;20714;-72
2023/07/27 09:17:58;;;;;;;3.80;1.40;;;;;;;20.73;46.15;94290.56;5071966;28;20222;-74
2023/07/27 09:20:25;;;;;;;1.77;1.35;;;;;;;21.36;45.46;94278.41;5071883;28;20600;-73
2023/07/27 09:22:52;;;;;;;1.20;1.10;;;;;;;21.70;44.61;94281.28;5071725;28;20757;-71
2023/07/27 09:25:22;;;;;;;2.30;1.00;;;;;;;21.52;45.53;94286.16;5071664;28;20203;-71
2023/07/27 09:27:53;;;;;;;1.27;0.90;;;;;;;21.53;44.25;94271.97;5071529;28;20252;-75
2023/07/27 09:30:22;;;;;;;1.60;1.08;;;;;;;20.97;45.50;94278.63;5070933;28;20650;-74
2023/07/27 09:32:50;;;;;;;2.85;1.00;;;;;;;20.71;44.93;94287.41;5070814;28;20747;-72
2023/07/27 09:35:17;;;;;;;2.78;1.15;;;;;;;20.51;46.00;94296.13;5070954;28;20199;-71
2023/07/27 09:37:45;;;;;;;1.95;0.90;;;;;;;20.45;46.89;94289.50;5068561;28;20768;-74
2023/07/27 09:40:13;;;;;;;1.35;0.88;;;;;;;20.68;45.72;94294.50;5083881;28;20653;-73
2023/07/27 09:42:41;;;;;;;1.13;0.98;;;;;;;20.58;45.62;94298.88;5070564;28;20230;-72
2023/07/27 09:45:09;;;;;;;1.95;1.10;;;;;;;20.56;45.52;94298.47;5068153;28;20688;-73
2023/07/27 09:47:38;;;;;;;2.17;1.45;;;;;;;20.82;45.93;94304.66;5071109;28;20210;-73
2023/07/27 09:50:06;;;;;;;2.28;0.80;;;;;;;20.78;45.49;94309.41;5070799;28;20202;-72
2023/07/27 09:52:35;;;;;;;1.05;1.02;;;;;;;20.98;45.29;94296.72;5075649;28;20201;-75
2023/07/27 09:55:02;;;;;;;1.42;1.33;;;;;;;21.19;46.05;94287.56;5070581;28;20233;-72
2023/07/27 09:57:29;;;;;;;2.38;1.35;;;;;;;20.93;44.98;94305.38;5070703;28;20241;-71
2023/07/27 09:59:56;;;;;;;4.45;1.67;;;;;;;21.07;45.15;94310.81;5071070;28;20234;-71
2023/07/27 10:02:23;;;;;;;1.88;1.13;;;;;;;21.31;44.35;94302.88;5070993;28;20303;-78
2023/07/27 10:04:52;;;;;;;1.67;1.10;;;;;;;21.37;43.70;94290.19;5070752;28;20242;-76
2023/07/27 10:07:19;;;;;;;1.63;1.48;;;;;;;21.10;44.09;94299.00;5070751;28;20199;-74
2023/07/27 10:09:46;;;;;;;4.00;0.85;;;;;;;21.09;44.84;94302.16;5080437;28;20202;-73
2023/07/27 10:12:27;;;;;;;1.92;1.00;;;;;;;21.06;43.52;94320.28;5073568;28;20210;-75
2023/07/27 10:15:21;;;;;;;1.35;0.85;;;;;;;21.17;42.99;94304.50;5062360;28;20199;-75
2023/07/27 10:17:51;;;;;;;2.20;1.02;;;;;;;21.61;42.64;94305.78;5059696;28;20222;-76
2023/07/27 10:20:25;;;;;;;1.38;1.10;;;;;;;21.27;43.29;94314.69;5069472;28;20203;-75
2023/07/27 10:22:53;;;;;;;1.50;1.27;;;;;;;21.63;43.37;94298.66;5070111;28;20267;-77
2023/07/27 10:25:20;;;;;;;1.95;1.23;;;;;;;21.61;42.84;94300.25;5069904;28;20729;-74
2023/07/27 10:27:57;;;;;;;1.77;0.75;;;;;;;21.53;42.27;94287.72;5081550;28;20206;-76
2023/07/27 10:30:24;;;;;;;1.13;0.80;;;;;;;22.07;42.23;94282.56;5071443;28;20202;-72
2023/07/27 10:33:11;;;;;;;2.47;1.65;;;;;;;22.32;40.53;94286.63;5083608;28;20722;-75
2023/07/27 10:36:04;;;;;;;1.95;1.02;;;;;;;21.31;41.52;94280.81;5059308;28;20203;-74
2023/07/27 10:38:33;;;;;;;1.02;0.80;;;;;;;21.34;42.21;94285.50;5070365;28;20740;-71
2023/07/27 10:41:13;;;;;;;2.10;1.60;;;;;;;21.48;41.80;94290.91;5083728;28;20315;-75
2023/07/27 10:44:20;;;;;;;1.92;1.25;;;;;;;21.41;42.74;94296.47;5058234;28;20867;-74
2023/07/27 10:46:48;;;;;;;1.92;1.42;;;;;;;21.33;41.91;94283.94;5058130;28;20562;-74
2023/07/27 10:49:17;;;;;;;3.60;1.95;;;;;;;21.75;41.95;94283.59;5070003;28;20213;-75
2023/07/27 10:51:47;;;;;;;1.73;1.48;;;;;;;22.07;40.99;94277.03;5070446;28;20289;-74
2023/07/27 10:54:14;;;;;;;7.53;1.63;;;;;;;22.29;41.67;94279.16;5069851;28;20210;-74
2023/07/27 10:56:44;;;;;;;3.08;1.70;;;;;;;22.20;41.46;94269.81;5069495;28;20203;-73
2023/07/27 10:59:15;;;;;;;4.07;1.55;;;;;;;22.42;41.41;94260.09;5072171;28;20229;-77
2023/07/27 11:01:43;;;;;;;3.10;1.65;;;;;;;22.03;41.46;94265.25;5060178;28;20744;-76
2023/07/27 11:04:11;;;;;;;1.60;1.30;;;;;;;21.91;41.08;94252.72;5069517;28;20214;-75
2023/07/27 11:06:46;;;;;;;1.15;1.05;;;;;;;22.01;42.30;94264.88;5069362;28;20217;-72
2023/07/27 11:09:15;;;;;;;2.10;1.40;;;;;;;21.70;42.06;94236.41;5087881;28;20210;-71
2023/07/27 11:11:42;;;;;;;2.83;1.42;;;;;;;22.27;41.12;94250.44;5077961;28;20207;-72
2023/07/27 11:14:10;;;;;;;4.50;1.70;;;;;;;22.30;41.51;94246.81;5069491;28;20203;-74
2023/07/27 11:16:40;;;;;;;1.65;1.23;;;;;;;22.36;40.54;94253.47;5069935;28;20206;-73
2023/07/27 11:19:10;;;;;;;3.83;1.75;;;;;;;22.12;40.85;94251.78;5069696;28;20372;-75
2023/07/27 11:21:41;;;;;;;5.00;0.98;;;;;;;21.74;40.46;94267.47;5070112;28;20207;-71
2023/07/27 11:24:10;;;;;;;2.28;1.40;;;;;;;22.06;39.96;94253.41;5055977;28;20678;-72
2023/07/27 11:26:38;;;;;;;4.53;1.45;;;;;;;21.81;40.18;94262.69;5069612;28;20198;-74
2023/07/27 11:29:06;;;;;;;1.77;1.50;;;;;;;22.52;41.37;94252.88;5069199;28;20211;-74
2023/07/27 11:31:33;;;;;;;1.27;1.17;;;;;;;22.50;40.14;94250.53;5069116;28;20775;-76
2023/07/27 11:34:01;;;;;;;2.13;1.17;;;;;;;22.27;39.78;94253.19;5069464;28;20673;-73
2023/07/27 11:36:29;;;;;;;1.60;1.40;;;;;;;22.62;40.39;94238.16;5068968;28;20207;-71
2023/07/27 11:38:57;;;;;;;3.95;1.50;;;;;;;22.14;40.28;94263.19;5069095;28;20313;-72